createdAt,value
2024-02-28T00:04:07.666Z,22.20
2024-02-28T00:09:09.809Z,24.27
2024-02-28T00:14:11.854Z,23.77
2024-02-28T00:19:13.876Z,22.80
2024-02-28T00:24:15.563Z,23.05
2024-02-28T00:29:17.172Z,23.60
2024-02-28T00:34:18.978Z,20.63
2024-02-28T00:39:20.587Z,25.42
2024-02-28T00:44:22.404Z,25.70
2024-02-28T00:49:24.008Z,21.73
2024-02-28T00:54:27.127Z,22.77
2024-02-28T00:59:28.739Z,21.52
2024-02-28T01:04:30.737Z,25.20
2024-02-28T01:09:32.432Z,21.67
2024-02-28T01:14:34.059Z,24.08
2024-02-28T01:19:36.112Z,24.20
2024-02-28T01:24:38.074Z,25.35
2024-02-28T01:29:39.862Z,25.08
2024-02-28T01:34:41.487Z,23.95
2024-02-28T01:39:43.049Z,25.10
2024-02-28T01:44:47.156Z,26.42
2024-02-28T01:49:51.952Z,28.15
2024-02-28T01:54:53.761Z,23.77
2024-02-28T01:59:57.106Z,27.08
2024-02-28T02:04:59.769Z,23.55
2024-02-28T02:10:01.890Z,25.05
2024-02-28T02:15:03.913Z,24.63
2024-02-28T02:20:07.137Z,24.75
2024-02-28T02:25:09.215Z,22.90
2024-02-28T02:30:11.512Z,23.23
2024-02-28T02:35:13.260Z,23.70
2024-02-28T02:40:16.064Z,22.55
2024-02-28T02:45:18.249Z,24.27
2024-02-28T02:50:20.072Z,18.80
2024-02-28T02:55:21.810Z,21.83
2024-02-28T03:00:23.787Z,21.83
2024-02-28T03:05:25.424Z,23.52
2024-02-28T03:10:27.042Z,21.73
2024-02-28T03:15:28.890Z,23.42
2024-02-28T03:20:30.560Z,21.50
2024-02-28T03:25:32.650Z,21.65
2024-02-28T03:30:34.361Z,21.90
2024-02-28T03:35:36.094Z,25.25
2024-02-28T03:40:37.780Z,24.33
2024-02-28T03:45:40.389Z,23.23
2024-02-28T03:50:42.417Z,28.23
2024-02-28T03:55:47.486Z,29.17
2024-02-28T04:00:49.341Z,25.67
2024-02-28T04:05:51.038Z,23.52
2024-02-28T04:10:52.638Z,25.30
2024-02-28T04:15:54.246Z,25.52
2024-02-28T04:20:55.965Z,24.30
2024-02-28T04:25:57.792Z,25.05
2024-02-28T04:30:59.463Z,23.80
2024-02-28T04:36:01.071Z,26.27
2024-02-28T04:41:03.212Z,24.00
2024-02-28T04:46:05.195Z,22.10
2024-02-28T04:51:06.749Z,24.05
2024-02-28T04:56:08.349Z,25.05
2024-02-28T05:01:10.104Z,19.52
2024-02-28T05:06:11.687Z,21.05
2024-02-28T05:11:13.371Z,22.65
2024-02-28T05:16:16.113Z,21.50
2024-02-28T05:21:17.771Z,23.20
2024-02-28T05:26:19.345Z,21.15
2024-02-28T05:31:26.041Z,22.52
2024-02-28T05:36:29.152Z,22.67
2024-02-28T05:41:30.749Z,20.65
2024-02-28T05:46:33.202Z,21.55
2024-02-28T05:51:34.830Z,19.85
2024-02-28T05:56:36.398Z,20.77
2024-02-28T06:01:39.518Z,19.90
2024-02-28T06:06:41.165Z,20.52
2024-02-28T06:11:42.862Z,19.17
2024-02-28T06:16:47.312Z,19.55
2024-02-28T06:21:49.243Z,20.42
2024-02-28T06:26:50.885Z,20.00
2024-02-28T06:31:53.078Z,23.13
2024-02-28T06:36:54.792Z,18.98
2024-02-28T06:41:56.544Z,21.30
2024-02-28T06:46:58.094Z,16.38
2024-02-28T06:52:02.333Z,16.65
2024-02-28T06:57:04.176Z,17.13
2024-02-28T07:02:06.382Z,17.20
2024-02-28T07:07:07.963Z,16.98
2024-02-28T07:12:09.646Z,15.75
2024-02-28T07:17:11.772Z,17.42
2024-02-28T07:22:13.344Z,17.63
2024-02-28T07:27:15.025Z,17.35
2024-02-28T07:32:16.610Z,22.77
2024-02-28T07:37:18.161Z,18.58
2024-02-28T07:42:19.799Z,19.05
2024-02-28T07:47:21.410Z,18.88
2024-02-28T07:52:24.287Z,18.85
2024-02-28T07:57:26.118Z,17.60
2024-02-28T08:02:44.430Z,19.00
2024-02-28T08:07:46.102Z,20.52
2024-02-28T08:12:47.688Z,19.55
2024-02-28T08:17:49.337Z,19.40
2024-02-28T08:22:53.851Z,20.17
2024-02-28T08:27:55.540Z,22.88
2024-02-28T08:32:57.140Z,20.40
2024-02-28T08:37:58.725Z,23.17
2024-02-28T08:43:00.371Z,21.08
2024-02-28T08:48:04.914Z,18.73
2024-02-28T08:53:06.503Z,21.88
2024-02-28T08:58:08.115Z,19.90
2024-02-28T09:03:09.717Z,22.90
2024-02-28T09:08:14.267Z,22.02
2024-02-28T09:13:16.720Z,24.38
2024-02-28T09:18:18.466Z,21.42
2024-02-28T09:23:20.099Z,22.40
2024-02-28T09:28:21.755Z,22.73
2024-02-28T09:33:23.515Z,28.02
2024-02-28T09:38:25.086Z,25.77
2024-02-28T09:43:31.565Z,27.67
2024-02-28T09:48:33.719Z,27.38
2024-02-28T09:53:35.363Z,29.73
2024-02-28T09:58:40.052Z,31.85
2024-02-28T10:03:44.530Z,22.50
2024-02-28T10:08:48.604Z,23.55
2024-02-28T10:13:51.436Z,18.58
2024-02-28T10:18:53.063Z,18.45
2024-02-28T10:23:55.339Z,22.52
2024-02-28T10:28:57.692Z,24.85
2024-02-28T10:34:01.948Z,30.77
2024-02-28T10:39:04.613Z,26.95
2024-02-28T10:44:06.330Z,25.30
2024-02-28T10:49:08.085Z,27.00
2024-02-28T10:54:15.330Z,24.13
2024-02-28T10:59:17.381Z,23.15
2024-02-28T11:04:19.244Z,19.67
2024-02-28T11:09:29.016Z,21.33
2024-02-28T11:14:32.104Z,23.08
2024-02-28T11:19:36.116Z,20.35
2024-02-28T11:24:38.861Z,20.63
2024-02-28T11:29:40.742Z,19.67
2024-02-28T11:34:42.856Z,20.25
2024-02-28T11:39:48.731Z,18.83
2024-02-28T11:45:01.062Z,20.77
2024-02-28T11:50:06.768Z,20.00
2024-02-28T11:55:10.291Z,19.33
2024-02-28T12:00:15.481Z,19.63
2024-02-28T12:05:17.831Z,18.23
2024-02-28T12:10:19.881Z,22.98
2024-02-28T12:15:22.076Z,19.58
2024-02-28T12:20:23.688Z,20.02
2024-02-28T12:25:25.405Z,19.13
2024-02-28T12:30:27.513Z,20.48
2024-02-28T12:35:29.160Z,20.52
2024-02-28T12:40:30.764Z,17.92
2024-02-28T12:45:33.095Z,19.42
2024-02-28T12:50:36.780Z,19.55
2024-02-28T12:55:38.760Z,17.90
2024-02-28T13:00:40.981Z,19.27
2024-02-28T13:05:43.274Z,19.08
2024-02-28T13:10:44.874Z,18.88
2024-02-28T13:15:46.636Z,15.43
2024-02-28T13:20:48.501Z,18.60
2024-02-28T13:25:50.605Z,23.42
2024-02-28T13:30:52.346Z,17.02
2024-02-28T13:35:54.630Z,14.50
2024-02-28T13:40:57.712Z,10.88
2024-02-28T13:46:01.759Z,14.82
2024-02-28T13:51:04.184Z,13.20
2024-02-28T13:56:07.708Z,12.90
2024-02-28T14:01:10.829Z,10.82
2024-02-28T14:06:13.029Z,12.50
2024-02-28T14:11:17.495Z,11.60
2024-02-28T14:16:21.082Z,13.23
2024-02-28T14:21:25.788Z,15.35
2024-02-28T14:26:28.548Z,10.00
2024-02-28T14:31:31.804Z,12.75
2024-02-28T14:36:34.030Z,12.27
2024-02-28T14:41:35.917Z,13.77
2024-02-28T14:46:38.048Z,10.25
2024-02-28T14:51:40.641Z,11.07
2024-02-28T14:56:42.873Z,11.45
2024-02-28T15:01:45.113Z,11.05
2024-02-28T15:06:47.100Z,11.65
2024-02-28T15:11:49.713Z,10.75
2024-02-28T15:16:51.564Z,12.23
2024-02-28T15:21:54.440Z,11.35
2024-02-28T15:26:56.952Z,13.93
2024-02-28T15:31:59.060Z,11.57
2024-02-28T15:37:00.888Z,10.85
2024-02-28T15:42:02.827Z,11.88
2024-02-28T15:47:04.554Z,15.55
2024-02-28T15:52:06.546Z,10.48
2024-02-28T15:57:08.146Z,10.98
2024-02-28T16:02:11.071Z,11.32
2024-02-28T16:07:12.785Z,11.98
2024-02-28T16:12:15.557Z,11.43
2024-02-28T16:17:17.571Z,9.57
2024-02-28T16:22:21.884Z,10.73
2024-02-28T16:27:23.577Z,9.38
2024-02-28T16:32:25.213Z,12.20
2024-02-28T16:37:27.556Z,13.10
2024-02-28T16:42:30.239Z,13.55
2024-02-28T16:47:31.944Z,12.10
2024-02-28T16:52:33.837Z,10.88
2024-02-28T16:57:36.553Z,14.77
2024-02-28T17:02:39.873Z,14.85
2024-02-28T17:07:41.493Z,22.90
2024-02-28T17:12:43.072Z,15.90
2024-02-28T17:17:45.180Z,18.17
2024-02-28T17:22:47.191Z,13.48
2024-02-28T17:27:48.886Z,12.07
2024-02-28T17:32:51.515Z,16.73
2024-02-28T17:37:54.322Z,13.80
2024-02-28T17:42:57.119Z,13.50
2024-02-28T17:47:58.874Z,13.52
2024-02-28T17:53:00.881Z,14.50
2024-02-28T17:58:02.461Z,11.95
2024-02-28T18:03:06.929Z,14.65
2024-02-28T18:08:10.183Z,13.48
2024-02-28T18:13:12.714Z,16.05
2024-02-28T18:18:14.470Z,12.98
2024-02-28T18:23:24.196Z,15.80
2024-02-28T18:28:38.184Z,14.38
2024-02-28T18:33:40.512Z,18.02
2024-02-28T18:38:42.213Z,18.70
2024-02-28T18:43:45.961Z,16.83
2024-02-28T18:48:47.597Z,14.75
2024-02-28T18:53:49.280Z,12.10
2024-02-28T18:58:50.888Z,15.68
2024-02-28T19:03:54.067Z,15.63
2024-02-28T19:08:56.722Z,15.25
2024-02-28T19:14:00.456Z,14.57
2024-02-28T19:19:03.576Z,15.73
2024-02-28T19:24:05.743Z,16.30
2024-02-28T19:29:08.283Z,17.80
2024-02-28T19:34:11.264Z,16.48
2024-02-28T19:39:13.581Z,14.88
2024-02-28T19:44:16.362Z,14.05
2024-02-28T19:49:18.665Z,16.48
2024-02-28T19:54:21.070Z,16.70
2024-02-28T19:59:22.758Z,16.40
2024-02-28T20:04:24.337Z,14.60
2024-02-28T20:09:26.389Z,14.65
2024-02-28T20:14:29.488Z,18.17
2024-02-28T20:19:32.457Z,15.30
2024-02-28T20:24:37.618Z,15.20
2024-02-28T20:29:40.802Z,13.70
2024-02-28T20:34:42.668Z,17.92
2024-02-28T20:39:44.571Z,17.73
2024-02-28T20:44:46.196Z,16.15
2024-02-28T20:49:48.833Z,16.98
2024-02-28T20:54:52.007Z,18.63
2024-02-28T20:59:54.634Z,16.00
2024-02-28T21:04:59.166Z,16.35
2024-02-28T21:10:06.711Z,15.45
2024-02-28T21:15:10.941Z,15.13
2024-02-28T21:20:13.470Z,14.30
2024-02-28T21:25:15.544Z,16.83
2024-02-28T21:30:17.435Z,15.25
2024-02-28T21:35:19.784Z,15.27
2024-02-28T21:40:24.739Z,15.38
2024-02-28T21:45:26.997Z,15.55
2024-02-28T21:50:29.566Z,16.60
2024-02-28T21:55:31.419Z,15.60
2024-02-28T22:00:33.533Z,19.55
2024-02-28T22:05:35.810Z,34.22
2024-02-28T22:10:38.614Z,21.70
2024-02-28T22:15:43.838Z,17.10
2024-02-28T22:20:45.881Z,18.13
2024-02-28T22:25:48.026Z,17.67
2024-02-28T22:30:49.707Z,26.77
2024-02-28T22:35:51.664Z,20.38
2024-02-28T22:40:57.147Z,20.00
2024-02-28T22:45:58.915Z,19.40
2024-02-28T22:51:00.596Z,17.05
2024-02-28T22:56:02.168Z,18.05
2024-02-28T23:01:04.225Z,19.00
2024-02-28T23:06:06.545Z,19.95
2024-02-28T23:11:08.472Z,19.98
2024-02-28T23:16:10.518Z,18.50
2024-02-28T23:21:12.386Z,16.75
2024-02-28T23:26:13.989Z,18.27
2024-02-28T23:31:15.622Z,20.65
2024-02-28T23:36:17.216Z,22.80
2024-02-28T23:41:19.718Z,18.38
2024-02-28T23:46:21.363Z,19.77
2024-02-28T23:51:23.066Z,19.98
2024-02-28T23:56:24.708Z,19.95
